This is the latest recevied telemetry packets stored in our database for station/object HS5TQA-14. If no packets are shown the sender has not sent any telemetry packets the latest 1 day(s).
Telemetry packets is used to share measurements like repeteater parameters, battery voltage, radiation readings (or any other measurements).
| Time | TEMP* | HUM* | BAR* | BAT* | SAT* |
|---|---|---|---|---|---|
| 1778077006 | 3116 °C | 650 %RH | 2074 hPa | 1350 V | 29 |
| 1778074686 | 3085 °C | 809 %RH | 2067 hPa | 1339 V | 29 |
| 1778074036 | 2893 °C | 610 %RH | 2066 hPa | 1352 V | 30 |
| 1778073912 | 2904 °C | 603 %RH | 2066 hPa | 1365 V | 30 |
| 1778073651 | 2930 °C | 599 %RH | 2064 hPa | 1360 V | 29 |
| 1778073210 | 3030 °C | 589 %RH | 2066 hPa | 1383 V | 29 |
| 1778072571 | 3301 °C | 645 %RH | 2067 hPa | 1378 V | 28 |
| 1778072003 | 3353 °C | 773 %RH | 2068 hPa | 1332 V | 25 |
| 1778070784 | 3383 °C | 770 %RH | 2066 hPa | 1331 V | 25 |
| 1778067740 | 3477 °C | 760 %RH | 2060 hPa | 1340 V | 22 |
| 1778067129 | 3502 °C | 758 %RH | 2061 hPa | 1331 V | 24 |
| 1778066521 | 3521 °C | 757 %RH | 2059 hPa | 1339 V | 25 |
| 1778065302 | 3552 °C | 757 %RH | 2050 hPa | 1340 V | 26 |
| 1778062866 | 3589 °C | 765 %RH | 2048 hPa | 1340 V | 26 |
| 1778062258 | 3594 °C | 768 %RH | 2048 hPa | 1340 V | 23 |
| 1778061647 | 3599 °C | 771 %RH | 2048 hPa | 1340 V | 26 |
| 1778059820 | 3611 °C | 773 %RH | 2050 hPa | 1340 V | 26 |
| 1778057384 | 3679 °C | 759 %RH | 2051 hPa | 1340 V | 24 |
| 1778056776 | 3703 °C | 754 %RH | 2051 hPa | 1340 V | 25 |
| 1778056165 | 3730 °C | 753 %RH | 2053 hPa | 1340 V | 26 |
| 1778054949 | 3784 °C | 752 %RH | 2054 hPa | 1340 V | 25 |
| 1778054338 | 3816 °C | 748 %RH | 2057 hPa | 1341 V | 24 |
| 1778051902 | 3929 °C | 756 %RH | 2063 hPa | 1334 V | 27 |
| 1778051294 | 3927 °C | 764 %RH | 2062 hPa | 1340 V | 24 |
| 1778050683 | 3904 °C | 780 %RH | 2067 hPa | 1343 V | 28 |
*Used Equation Coefficients:
TEMP: 0, 1, 0
HUM: 0, 1, 0
BAR: 0, 1, 0
BAT: 0, 1, 0
SAT: 0, 1, 0
- The parameter names for the analog channels will be Value1, Value2, Value3 (up to Value5) if station has not sent a PARAM-packet that specifies the parameter names for each analog channel.
- Each analog value is a decimal number between 000 and 255 (according to APRS specifications). The receiver use the telemetry equation coefficientsto to restore the original sensor values. If no EQNS-packet with equation coefficients is sent we will show the values as is (this corresponds to the equation coefficients a=0, b=1 and c=0).
The sent equation coefficients is used in the equation: a * value2 + b * value + c. - The units for the analog values will not be shown if station has not sent a UNIT-packet specifying what unit's to use.
- The parameter names for the digital bits will be Bit1, Bit2, Bit3 (up to Bit8) if station has not sent a PARAM-packet that specifies the parameter names for each digital bit.
- All bit labels will be named "On" if station has not sent a UNIT-packet that specifies the label of each bit.
- A bit is considered to be On when the bit is 1 if station has not sent a BITS-packet that specifies another "Bit sense" (a BITS-packet specify the state of the bits that match the BIT labels)